VOCL Airport Information

Runway Information
Runway 10 Length 9383 ft width 150 ft
Elevation 312 ft Threshold 0 ft Heading 101
Runway 28 Length 9383 ft Width 150 ft
Elevation 325 ft Threshold 0 ft Heading 281
Airport Frequencies
Type ATIS Name ATIS Frequency 127 MHZ
Type TWR Name TWR Frequency 122.95 MHZ
Airport Navaids
Type NDB Name Calicut Frequency 303 KHZ
Type VOR-DME Name Calicut Frequency 116500 KHZ
Airport Weather Information & NOTAM
ADDS - METARS form results

(1256 UTC 24 January 2019)
Data provider http://aviationweather.gov/metar/data/
 
METAR text: VOCL 241230Z 29006KT 6000 NSC 28/21 Q1011 NOSIG
Conditions at: VOCL (CALICUT , IN) observed 1230 UTC 24 January 2019
Temperature: 28.0°C (82°F)
Dewpoint: 21.0°C (70°F) [RH = 66%]
Pressure (altimeter): 29.85 inches Hg (1011.0 mb)
Winds: from the WNW (290 degrees) at 7 MPH (6 knots; 3.1 m/s)
Visibility: 4 miles ( 6 km)
Ceiling: at least 12,000 feet AGL
Clouds: sky clear below 12,000 feet AGL
Weather: no significant weather observed at this time

METAR text: VOCL 241200Z 30008KT 7000 NSC 29/21 Q1010 NOSIG
Conditions at: VOCL (CALICUT , IN) observed 1200 UTC 24 January 2019
Temperature: 29.0°C (84°F)
Dewpoint: 21.0°C (70°F) [RH = 62%]
Pressure (altimeter): 29.82 inches Hg (1010.0 mb)
Winds: from the WNW (300 degrees) at 9 MPH (8 knots; 4.1 m/s)
Visibility: 4 miles ( 7 km)
Ceiling: at least 12,000 feet AGL
Clouds: sky clear below 12,000 feet AGL
Weather: no significant weather observed at this time

Forecast for: VOCL (CALICUT , IN)
Text: TAF VOCL 241100Z 2412/2421 29005KT 6000 FEW015
Forecast period: 1200 to 1700 UTC 24 January 2019
Forecast type: FROM: standard forecast or significant change
Winds: from the WNW (290 degrees) at 6 MPH (5 knots; 2.6 m/s)
Visibility: 4 miles (6 km)
Ceiling: at least 12,000 feet AGL
Clouds: few clouds at 1500 feet AGL
Weather: no significant weather forecast for this period
Text: BECMG 2417/2418 12003KT 4000 BR
Forecast period: 1700 to 2100 UTC 24 January 2019
Forecast type: BECOMING: Conditions expected to become as follows by 1800 UTC 24 January 2019
Winds: from the ESE (120 degrees) at 3 MPH (3 knots; 1.5 m/s)
Visibility: 2.49 miles (4.01 km)
Ceiling: at least 12,000 feet AGL
Clouds: few clouds at 1500 feet AGL
Weather: BR  (mist)